sensor_id;sensor_type;location;lat;lon;timestamp;P1;durP1;ratioP1;P2;durP2;ratioP2
31112;SDS011;17763;48.730;9.136;2023-01-19T00:00:23;18.40;;;11.02;;
31112;SDS011;17763;48.730;9.136;2023-01-19T00:02:52;15.52;;;11.82;;
31112;SDS011;17763;48.730;9.136;2023-01-19T00:05:19;19.83;;;11.68;;
31112;SDS011;17763;48.730;9.136;2023-01-19T00:07:45;17.85;;;13.02;;
31112;SDS011;17763;48.730;9.136;2023-01-19T00:10:10;14.00;;;11.13;;
31112;SDS011;17763;48.730;9.136;2023-01-19T00:12:36;17.20;;;11.95;;
31112;SDS011;17763;48.730;9.136;2023-01-19T00:15:02;16.70;;;12.32;;
31112;SDS011;17763;48.730;9.136;2023-01-19T00:17:28;17.35;;;11.05;;
31112;SDS011;17763;48.730;9.136;2023-01-19T00:19:54;17.75;;;12.75;;
31112;SDS011;17763;48.730;9.136;2023-01-19T00:22:21;19.73;;;12.75;;
31112;SDS011;17763;48.730;9.136;2023-01-19T00:24:47;15.05;;;11.68;;
31112;SDS011;17763;48.730;9.136;2023-01-19T00:27:14;16.33;;;12.23;;
31112;SDS011;17763;48.730;9.136;2023-01-19T00:29:42;18.02;;;11.75;;
31112;SDS011;17763;48.730;9.136;2023-01-19T00:32:08;22.02;;;12.05;;
31112;SDS011;17763;48.730;9.136;2023-01-19T00:34:34;19.15;;;12.63;;
31112;SDS011;17763;48.730;9.136;2023-01-19T00:37:06;15.88;;;11.63;;
31112;SDS011;17763;48.730;9.136;2023-01-19T00:39:35;19.17;;;12.60;;
31112;SDS011;17763;48.730;9.136;2023-01-19T00:42:00;16.23;;;11.15;;
31112;SDS011;17763;48.730;9.136;2023-01-19T00:44:44;17.52;;;12.20;;
31112;SDS011;17763;48.730;9.136;2023-01-19T00:47:10;17.60;;;11.70;;
31112;SDS011;17763;48.730;9.136;2023-01-19T00:49:36;18.48;;;12.35;;
31112;SDS011;17763;48.730;9.136;2023-01-19T00:52:02;12.35;;;10.52;;
31112;SDS011;17763;48.730;9.136;2023-01-19T00:54:28;20.65;;;13.60;;
31112;SDS011;17763;48.730;9.136;2023-01-19T00:56:54;17.45;;;12.40;;
31112;SDS011;17763;48.730;9.136;2023-01-19T00:59:20;15.05;;;11.45;;
31112;SDS011;17763;48.730;9.136;2023-01-19T01:01:49;15.15;;;11.75;;
31112;SDS011;17763;48.730;9.136;2023-01-19T01:04:15;15.25;;;11.77;;
31112;SDS011;17763;48.730;9.136;2023-01-19T01:06:41;16.50;;;11.23;;
31112;SDS011;17763;48.730;9.136;2023-01-19T01:09:11;16.50;;;10.52;;
31112;SDS011;17763;48.730;9.136;2023-01-19T01:11:38;16.90;;;11.00;;
31112;SDS011;17763;48.730;9.136;2023-01-19T01:14:04;20.00;;;11.85;;
31112;SDS011;17763;48.730;9.136;2023-01-19T01:16:30;15.10;;;10.82;;
31112;SDS011;17763;48.730;9.136;2023-01-19T01:18:58;18.67;;;12.32;;
31112;SDS011;17763;48.730;9.136;2023-01-19T01:21:24;22.35;;;13.73;;
31112;SDS011;17763;48.730;9.136;2023-01-19T01:23:50;15.82;;;10.95;;
31112;SDS011;17763;48.730;9.136;2023-01-19T01:26:17;19.95;;;13.15;;
31112;SDS011;17763;48.730;9.136;2023-01-19T01:28:43;20.80;;;12.10;;
31112;SDS011;17763;48.730;9.136;2023-01-19T01:31:09;15.35;;;10.90;;
31112;SDS011;17763;48.730;9.136;2023-01-19T01:33:35;14.48;;;10.45;;
31112;SDS011;17763;48.730;9.136;2023-01-19T01:36:00;16.17;;;11.38;;
31112;SDS011;17763;48.730;9.136;2023-01-19T01:38:26;17.92;;;11.45;;
31112;SDS011;17763;48.730;9.136;2023-01-19T01:40:52;13.63;;;10.90;;
31112;SDS011;17763;48.730;9.136;2023-01-19T01:43:18;17.08;;;11.43;;
31112;SDS011;17763;48.730;9.136;2023-01-19T01:45:46;17.25;;;10.95;;
31112;SDS011;17763;48.730;9.136;2023-01-19T01:48:17;14.20;;;10.93;;
31112;SDS011;17763;48.730;9.136;2023-01-19T01:51:14;14.43;;;10.32;;
31112;SDS011;17763;48.730;9.136;2023-01-19T01:56:25;15.45;;;10.45;;
31112;SDS011;17763;48.730;9.136;2023-01-19T01:58:56;14.48;;;11.02;;
31112;SDS011;17763;48.730;9.136;2023-01-19T02:01:23;15.63;;;10.50;;
31112;SDS011;17763;48.730;9.136;2023-01-19T02:04:07;15.13;;;10.93;;
31112;SDS011;17763;48.730;9.136;2023-01-19T02:06:36;14.80;;;11.23;;
31112;SDS011;17763;48.730;9.136;2023-01-19T02:09:20;14.50;;;10.82;;
31112;SDS011;17763;48.730;9.136;2023-01-19T02:12:07;13.55;;;9.98;;
31112;SDS011;17763;48.730;9.136;2023-01-19T02:14:51;14.20;;;10.55;;
31112;SDS011;17763;48.730;9.136;2023-01-19T02:17:16;14.27;;;10.88;;
31112;SDS011;17763;48.730;9.136;2023-01-19T02:19:44;13.80;;;10.50;;
31112;SDS011;17763;48.730;9.136;2023-01-19T02:24:36;15.93;;;11.10;;
31112;SDS011;17763;48.730;9.136;2023-01-19T02:27:02;14.23;;;10.32;;
31112;SDS011;17763;48.730;9.136;2023-01-19T02:29:29;15.55;;;11.05;;
31112;SDS011;17763;48.730;9.136;2023-01-19T02:31:56;14.80;;;11.00;;
31112;SDS011;17763;48.730;9.136;2023-01-19T02:34:26;15.20;;;10.88;;
31112;SDS011;17763;48.730;9.136;2023-01-19T02:36:53;17.65;;;11.07;;
31112;SDS011;17763;48.730;9.136;2023-01-19T02:39:32;11.70;;;10.07;;
31112;SDS011;17763;48.730;9.136;2023-01-19T02:42:03;15.25;;;11.13;;
31112;SDS011;17763;48.730;9.136;2023-01-19T02:44:32;17.20;;;11.05;;
31112;SDS011;17763;48.730;9.136;2023-01-19T02:47:03;15.65;;;10.48;;
31112;SDS011;17763;48.730;9.136;2023-01-19T02:49:29;14.05;;;10.73;;
31112;SDS011;17763;48.730;9.136;2023-01-19T02:51:55;18.92;;;11.00;;
31112;SDS011;17763;48.730;9.136;2023-01-19T02:54:35;13.38;;;10.00;;
31112;SDS011;17763;48.730;9.136;2023-01-19T03:15:43;13.52;;;9.82;;
31112;SDS011;17763;48.730;9.136;2023-01-19T03:18:11;14.10;;;10.10;;
31112;SDS011;17763;48.730;9.136;2023-01-19T03:20:40;15.63;;;10.82;;
31112;SDS011;17763;48.730;9.136;2023-01-19T03:23:09;15.27;;;9.95;;
31112;SDS011;17763;48.730;9.136;2023-01-19T03:25:37;17.98;;;10.25;;
31112;SDS011;17763;48.730;9.136;2023-01-19T03:28:07;12.13;;;10.57;;
31112;SDS011;17763;48.730;9.136;2023-01-19T03:30:34;15.38;;;10.15;;
31112;SDS011;17763;48.730;9.136;2023-01-19T03:33:10;13.40;;;9.40;;
31112;SDS011;17763;48.730;9.136;2023-01-19T03:35:42;12.80;;;9.35;;
31112;SDS011;17763;48.730;9.136;2023-01-19T03:38:17;11.57;;;9.32;;
31112;SDS011;17763;48.730;9.136;2023-01-19T03:40:49;15.38;;;9.90;;
31112;SDS011;17763;48.730;9.136;2023-01-19T03:43:19;13.50;;;9.68;;
31112;SDS011;17763;48.730;9.136;2023-01-19T03:45:47;16.40;;;9.90;;
31112;SDS011;17763;48.730;9.136;2023-01-19T03:48:14;17.13;;;10.60;;
31112;SDS011;17763;48.730;9.136;2023-01-19T03:50:41;14.02;;;10.25;;
31112;SDS011;17763;48.730;9.136;2023-01-19T03:53:10;13.77;;;10.10;;
31112;SDS011;17763;48.730;9.136;2023-01-19T03:55:38;14.95;;;9.68;;
31112;SDS011;17763;48.730;9.136;2023-01-19T03:58:09;13.48;;;10.50;;
31112;SDS011;17763;48.730;9.136;2023-01-19T04:00:38;15.32;;;10.25;;
31112;SDS011;17763;48.730;9.136;2023-01-19T04:03:09;15.23;;;10.48;;
31112;SDS011;17763;48.730;9.136;2023-01-19T04:05:38;17.20;;;11.18;;
31112;SDS011;17763;48.730;9.136;2023-01-19T04:08:04;17.30;;;10.93;;
31112;SDS011;17763;48.730;9.136;2023-01-19T04:10:30;16.55;;;11.77;;
31112;SDS011;17763;48.730;9.136;2023-01-19T04:13:00;16.90;;;11.48;;
31112;SDS011;17763;48.730;9.136;2023-01-19T04:15:30;15.13;;;10.95;;
31112;SDS011;17763;48.730;9.136;2023-01-19T04:17:58;15.20;;;12.10;;
31112;SDS011;17763;48.730;9.136;2023-01-19T04:20:27;18.70;;;12.23;;
31112;SDS011;17763;48.730;9.136;2023-01-19T04:22:57;14.63;;;10.57;;
31112;SDS011;17763;48.730;9.136;2023-01-19T04:25:26;18.40;;;12.32;;
31112;SDS011;17763;48.730;9.136;2023-01-19T04:27:54;19.23;;;13.27;;
31112;SDS011;17763;48.730;9.136;2023-01-19T04:30:22;19.40;;;12.18;;
31112;SDS011;17763;48.730;9.136;2023-01-19T04:32:48;19.15;;;13.65;;
31112;SDS011;17763;48.730;9.136;2023-01-19T04:35:14;16.35;;;12.85;;
31112;SDS011;17763;48.730;9.136;2023-01-19T04:37:40;17.77;;;12.30;;
31112;SDS011;17763;48.730;9.136;2023-01-19T04:40:06;19.38;;;12.48;;
31112;SDS011;17763;48.730;9.136;2023-01-19T04:42:33;18.17;;;13.30;;
31112;SDS011;17763;48.730;9.136;2023-01-19T04:44:58;22.15;;;13.48;;
31112;SDS011;17763;48.730;9.136;2023-01-19T04:47:24;24.15;;;13.57;;
31112;SDS011;17763;48.730;9.136;2023-01-19T04:49:52;19.75;;;13.43;;
31112;SDS011;17763;48.730;9.136;2023-01-19T04:52:18;18.15;;;13.27;;
31112;SDS011;17763;48.730;9.136;2023-01-19T04:54:45;19.20;;;12.82;;
31112;SDS011;17763;48.730;9.136;2023-01-19T04:57:11;19.85;;;14.15;;
31112;SDS011;17763;48.730;9.136;2023-01-19T04:59:39;17.42;;;11.95;;
31112;SDS011;17763;48.730;9.136;2023-01-19T05:02:05;20.33;;;12.75;;
31112;SDS011;17763;48.730;9.136;2023-01-19T05:04:31;22.33;;;13.43;;
31112;SDS011;17763;48.730;9.136;2023-01-19T05:06:57;21.27;;;13.98;;
31112;SDS011;17763;48.730;9.136;2023-01-19T05:09:22;18.05;;;13.15;;
31112;SDS011;17763;48.730;9.136;2023-01-19T05:11:48;16.15;;;12.10;;
31112;SDS011;17763;48.730;9.136;2023-01-19T05:14:16;15.82;;;11.80;;
31112;SDS011;17763;48.730;9.136;2023-01-19T05:16:41;16.88;;;12.70;;
31112;SDS011;17763;48.730;9.136;2023-01-19T05:19:07;15.85;;;13.07;;
31112;SDS011;17763;48.730;9.136;2023-01-19T05:21:33;18.83;;;12.57;;
31112;SDS011;17763;48.730;9.136;2023-01-19T05:24:01;15.25;;;12.05;;
31112;SDS011;17763;48.730;9.136;2023-01-19T05:26:26;17.85;;;11.98;;
31112;SDS011;17763;48.730;9.136;2023-01-19T05:28:52;17.77;;;11.52;;
31112;SDS011;17763;48.730;9.136;2023-01-19T05:31:18;17.50;;;12.63;;
31112;SDS011;17763;48.730;9.136;2023-01-19T05:33:44;18.30;;;12.25;;
31112;SDS011;17763;48.730;9.136;2023-01-19T05:36:09;17.10;;;11.98;;
31112;SDS011;17763;48.730;9.136;2023-01-19T05:38:35;18.02;;;12.10;;
31112;SDS011;17763;48.730;9.136;2023-01-19T05:41:01;20.33;;;12.90;;
31112;SDS011;17763;48.730;9.136;2023-01-19T05:43:26;15.77;;;11.85;;
31112;SDS011;17763;48.730;9.136;2023-01-19T05:45:54;20.05;;;13.23;;
31112;SDS011;17763;48.730;9.136;2023-01-19T05:48:25;17.83;;;12.70;;
31112;SDS011;17763;48.730;9.136;2023-01-19T05:50:50;15.85;;;11.07;;
31112;SDS011;17763;48.730;9.136;2023-01-19T05:53:22;18.40;;;12.48;;
31112;SDS011;17763;48.730;9.136;2023-01-19T05:55:47;18.35;;;12.52;;
31112;SDS011;17763;48.730;9.136;2023-01-19T05:58:13;19.58;;;11.23;;
31112;SDS011;17763;48.730;9.136;2023-01-19T06:00:41;16.88;;;11.18;;
31112;SDS011;17763;48.730;9.136;2023-01-19T06:03:08;14.18;;;11.27;;
31112;SDS011;17763;48.730;9.136;2023-01-19T06:05:34;17.67;;;11.75;;
31112;SDS011;17763;48.730;9.136;2023-01-19T06:08:02;17.25;;;11.45;;
31112;SDS011;17763;48.730;9.136;2023-01-19T06:10:30;19.70;;;12.48;;
31112;SDS011;17763;48.730;9.136;2023-01-19T06:12:56;16.48;;;12.02;;
31112;SDS011;17763;48.730;9.136;2023-01-19T06:15:24;20.13;;;12.20;;
31112;SDS011;17763;48.730;9.136;2023-01-19T06:17:50;21.58;;;12.88;;
31112;SDS011;17763;48.730;9.136;2023-01-19T06:20:15;21.48;;;13.38;;
31112;SDS011;17763;48.730;9.136;2023-01-19T06:22:42;15.80;;;10.88;;
31112;SDS011;17763;48.730;9.136;2023-01-19T06:25:12;17.20;;;12.02;;
31112;SDS011;17763;48.730;9.136;2023-01-19T06:27:41;18.05;;;11.15;;
31112;SDS011;17763;48.730;9.136;2023-01-19T06:30:08;15.32;;;12.05;;
31112;SDS011;17763;48.730;9.136;2023-01-19T06:32:34;14.65;;;11.18;;
31112;SDS011;17763;48.730;9.136;2023-01-19T06:35:00;15.63;;;11.93;;
31112;SDS011;17763;48.730;9.136;2023-01-19T06:37:25;14.88;;;10.55;;
31112;SDS011;17763;48.730;9.136;2023-01-19T06:39:52;19.30;;;11.50;;
31112;SDS011;17763;48.730;9.136;2023-01-19T06:42:18;15.98;;;11.00;;
31112;SDS011;17763;48.730;9.136;2023-01-19T06:44:43;14.23;;;10.95;;
31112;SDS011;17763;48.730;9.136;2023-01-19T06:47:12;14.15;;;11.23;;
31112;SDS011;17763;48.730;9.136;2023-01-19T06:49:38;17.85;;;11.82;;
31112;SDS011;17763;48.730;9.136;2023-01-19T06:52:04;13.05;;;10.15;;
31112;SDS011;17763;48.730;9.136;2023-01-19T06:54:30;13.82;;;10.57;;
31112;SDS011;17763;48.730;9.136;2023-01-19T06:56:55;16.58;;;11.90;;
31112;SDS011;17763;48.730;9.136;2023-01-19T06:59:21;14.63;;;10.48;;
31112;SDS011;17763;48.730;9.136;2023-01-19T07:01:47;13.77;;;9.35;;
31112;SDS011;17763;48.730;9.136;2023-01-19T07:04:15;12.85;;;9.90;;
31112;SDS011;17763;48.730;9.136;2023-01-19T07:06:40;15.55;;;10.70;;
31112;SDS011;17763;48.730;9.136;2023-01-19T07:09:06;13.85;;;9.60;;
31112;SDS011;17763;48.730;9.136;2023-01-19T07:11:37;14.18;;;10.90;;
31112;SDS011;17763;48.730;9.136;2023-01-19T07:14:05;16.17;;;10.27;;
31112;SDS011;17763;48.730;9.136;2023-01-19T07:16:31;17.10;;;10.00;;
31112;SDS011;17763;48.730;9.136;2023-01-19T07:18:57;13.82;;;9.07;;
31112;SDS011;17763;48.730;9.136;2023-01-19T07:21:23;14.13;;;9.77;;
31112;SDS011;17763;48.730;9.136;2023-01-19T07:23:49;17.17;;;9.65;;
31112;SDS011;17763;48.730;9.136;2023-01-19T07:26:15;14.00;;;9.60;;
31112;SDS011;17763;48.730;9.136;2023-01-19T07:28:43;12.73;;;9.35;;
31112;SDS011;17763;48.730;9.136;2023-01-19T07:31:09;12.18;;;9.13;;
31112;SDS011;17763;48.730;9.136;2023-01-19T07:33:38;12.88;;;9.30;;
31112;SDS011;17763;48.730;9.136;2023-01-19T07:36:04;11.68;;;8.93;;
31112;SDS011;17763;48.730;9.136;2023-01-19T07:38:32;11.82;;;8.68;;
31112;SDS011;17763;48.730;9.136;2023-01-19T07:40:59;14.63;;;8.98;;
31112;SDS011;17763;48.730;9.136;2023-01-19T07:43:30;14.30;;;9.18;;
31112;SDS011;17763;48.730;9.136;2023-01-19T07:45:57;11.93;;;9.07;;
31112;SDS011;17763;48.730;9.136;2023-01-19T07:48:24;11.07;;;8.82;;
31112;SDS011;17763;48.730;9.136;2023-01-19T07:50:52;11.38;;;8.95;;
31112;SDS011;17763;48.730;9.136;2023-01-19T07:53:18;11.02;;;8.07;;
31112;SDS011;17763;48.730;9.136;2023-01-19T07:55:44;11.00;;;8.57;;
31112;SDS011;17763;48.730;9.136;2023-01-19T07:58:10;11.77;;;8.05;;
31112;SDS011;17763;48.730;9.136;2023-01-19T08:00:38;17.25;;;10.00;;
31112;SDS011;17763;48.730;9.136;2023-01-19T08:03:06;12.75;;;8.55;;
31112;SDS011;17763;48.730;9.136;2023-01-19T08:05:35;11.70;;;8.57;;
31112;SDS011;17763;48.730;9.136;2023-01-19T08:08:04;11.35;;;8.65;;
31112;SDS011;17763;48.730;9.136;2023-01-19T08:10:29;13.18;;;8.93;;
31112;SDS011;17763;48.730;9.136;2023-01-19T08:12:55;11.05;;;8.40;;
31112;SDS011;17763;48.730;9.136;2023-01-19T08:15:24;13.32;;;8.52;;
31112;SDS011;17763;48.730;9.136;2023-01-19T08:17:53;12.70;;;8.80;;
31112;SDS011;17763;48.730;9.136;2023-01-19T08:20:23;11.45;;;8.07;;
31112;SDS011;17763;48.730;9.136;2023-01-19T08:22:51;15.55;;;8.95;;
31112;SDS011;17763;48.730;9.136;2023-01-19T08:25:39;11.50;;;8.90;;
31112;SDS011;17763;48.730;9.136;2023-01-19T08:28:08;11.43;;;8.13;;
31112;SDS011;17763;48.730;9.136;2023-01-19T08:30:35;11.35;;;7.75;;
31112;SDS011;17763;48.730;9.136;2023-01-19T08:33:04;11.60;;;8.18;;
31112;SDS011;17763;48.730;9.136;2023-01-19T08:35:33;12.13;;;7.97;;
31112;SDS011;17763;48.730;9.136;2023-01-19T08:38:01;10.55;;;8.15;;
31112;SDS011;17763;48.730;9.136;2023-01-19T08:40:30;10.70;;;8.20;;
31112;SDS011;17763;48.730;9.136;2023-01-19T08:43:02;9.07;;;8.05;;
31112;SDS011;17763;48.730;9.136;2023-01-19T08:45:31;11.68;;;7.95;;
31112;SDS011;17763;48.730;9.136;2023-01-19T08:47:57;10.43;;;7.45;;
31112;SDS011;17763;48.730;9.136;2023-01-19T08:50:32;11.55;;;8.85;;
31112;SDS011;17763;48.730;9.136;2023-01-19T08:52:59;10.25;;;8.05;;
31112;SDS011;17763;48.730;9.136;2023-01-19T08:55:26;11.35;;;7.60;;
31112;SDS011;17763;48.730;9.136;2023-01-19T08:57:53;9.75;;;7.43;;
31112;SDS011;17763;48.730;9.136;2023-01-19T09:00:23;10.45;;;7.95;;
31112;SDS011;17763;48.730;9.136;2023-01-19T09:02:51;12.60;;;7.65;;
31112;SDS011;17763;48.730;9.136;2023-01-19T09:05:22;14.57;;;7.75;;
31112;SDS011;17763;48.730;9.136;2023-01-19T09:07:48;10.30;;;7.05;;
31112;SDS011;17763;48.730;9.136;2023-01-19T09:10:15;9.07;;;7.25;;
31112;SDS011;17763;48.730;9.136;2023-01-19T09:12:42;9.10;;;7.28;;
31112;SDS011;17763;48.730;9.136;2023-01-19T09:15:09;9.32;;;7.03;;
31112;SDS011;17763;48.730;9.136;2023-01-19T09:17:37;7.28;;;6.55;;
31112;SDS011;17763;48.730;9.136;2023-01-19T09:20:04;12.18;;;8.10;;
31112;SDS011;17763;48.730;9.136;2023-01-19T09:22:30;13.07;;;7.80;;
31112;SDS011;17763;48.730;9.136;2023-01-19T09:24:57;9.45;;;7.15;;
31112;SDS011;17763;48.730;9.136;2023-01-19T09:27:23;10.65;;;8.65;;
31112;SDS011;17763;48.730;9.136;2023-01-19T09:29:49;8.73;;;7.47;;
31112;SDS011;17763;48.730;9.136;2023-01-19T09:32:18;10.43;;;7.38;;
31112;SDS011;17763;48.730;9.136;2023-01-19T09:34:44;10.27;;;7.82;;
31112;SDS011;17763;48.730;9.136;2023-01-19T09:37:10;9.25;;;7.35;;
31112;SDS011;17763;48.730;9.136;2023-01-19T09:39:37;10.77;;;7.80;;
31112;SDS011;17763;48.730;9.136;2023-01-19T09:44:50;8.52;;;7.63;;
31112;SDS011;17763;48.730;9.136;2023-01-19T09:47:20;9.40;;;7.97;;
31112;SDS011;17763;48.730;9.136;2023-01-19T09:49:52;12.18;;;7.50;;
31112;SDS011;17763;48.730;9.136;2023-01-19T09:52:25;10.45;;;7.50;;
31112;SDS011;17763;48.730;9.136;2023-01-19T09:54:52;9.23;;;7.25;;
31112;SDS011;17763;48.730;9.136;2023-01-19T09:57:20;7.50;;;6.75;;
31112;SDS011;17763;48.730;9.136;2023-01-19T09:59:48;8.88;;;6.60;;
31112;SDS011;17763;48.730;9.136;2023-01-19T10:05:03;9.40;;;7.13;;
31112;SDS011;17763;48.730;9.136;2023-01-19T10:10:30;12.93;;;8.40;;
31112;SDS011;17763;48.730;9.136;2023-01-19T10:12:58;9.73;;;6.93;;
31112;SDS011;17763;48.730;9.136;2023-01-19T10:18:18;9.75;;;7.45;;
31112;SDS011;17763;48.730;9.136;2023-01-19T10:21:02;9.27;;;7.50;;
31112;SDS011;17763;48.730;9.136;2023-01-19T10:28:42;10.90;;;7.63;;
31112;SDS011;17763;48.730;9.136;2023-01-19T10:31:09;8.80;;;7.38;;
31112;SDS011;17763;48.730;9.136;2023-01-19T10:33:38;10.05;;;7.22;;
31112;SDS011;17763;48.730;9.136;2023-01-19T10:36:05;8.77;;;7.88;;
31112;SDS011;17763;48.730;9.136;2023-01-19T10:38:41;9.88;;;6.55;;
31112;SDS011;17763;48.730;9.136;2023-01-19T10:41:10;8.43;;;7.53;;
31112;SDS011;17763;48.730;9.136;2023-01-19T10:43:42;10.77;;;7.53;;
31112;SDS011;17763;48.730;9.136;2023-01-19T10:48:47;9.93;;;7.15;;
31112;SDS011;17763;48.730;9.136;2023-01-19T10:51:14;8.15;;;6.68;;
31112;SDS011;17763;48.730;9.136;2023-01-19T10:53:41;9.82;;;7.00;;
31112;SDS011;17763;48.730;9.136;2023-01-19T10:56:21;9.48;;;7.43;;
31112;SDS011;17763;48.730;9.136;2023-01-19T10:58:48;11.95;;;7.28;;
31112;SDS011;17763;48.730;9.136;2023-01-19T11:01:16;8.05;;;6.10;;
31112;SDS011;17763;48.730;9.136;2023-01-19T11:03:44;11.20;;;7.45;;
31112;SDS011;17763;48.730;9.136;2023-01-19T11:06:21;9.55;;;6.15;;
31112;SDS011;17763;48.730;9.136;2023-01-19T11:08:49;7.35;;;5.90;;
31112;SDS011;17763;48.730;9.136;2023-01-19T11:11:16;6.88;;;6.18;;
31112;SDS011;17763;48.730;9.136;2023-01-19T11:14:00;8.27;;;6.60;;
31112;SDS011;17763;48.730;9.136;2023-01-19T11:16:31;6.80;;;5.97;;
31112;SDS011;17763;48.730;9.136;2023-01-19T11:19:01;7.90;;;6.25;;
31112;SDS011;17763;48.730;9.136;2023-01-19T11:21:28;9.77;;;7.65;;
31112;SDS011;17763;48.730;9.136;2023-01-19T11:23:56;9.10;;;5.88;;
31112;SDS011;17763;48.730;9.136;2023-01-19T11:26:31;7.78;;;5.90;;
31112;SDS011;17763;48.730;9.136;2023-01-19T11:28:58;7.07;;;6.28;;
31112;SDS011;17763;48.730;9.136;2023-01-19T11:33:54;8.98;;;6.45;;
31112;SDS011;17763;48.730;9.136;2023-01-19T11:38:56;8.52;;;6.07;;
31112;SDS011;17763;48.730;9.136;2023-01-19T11:41:41;16.50;;;7.07;;
31112;SDS011;17763;48.730;9.136;2023-01-19T11:44:15;7.28;;;6.25;;
31112;SDS011;17763;48.730;9.136;2023-01-19T11:47:01;8.85;;;6.75;;
31112;SDS011;17763;48.730;9.136;2023-01-19T11:52:40;9.23;;;6.50;;
31112;SDS011;17763;48.730;9.136;2023-01-19T11:58:03;6.95;;;5.78;;
31112;SDS011;17763;48.730;9.136;2023-01-19T12:00:37;9.93;;;5.60;;
31112;SDS011;17763;48.730;9.136;2023-01-19T12:05:57;8.05;;;6.05;;
31112;SDS011;17763;48.730;9.136;2023-01-19T12:08:29;8.25;;;5.70;;
31112;SDS011;17763;48.730;9.136;2023-01-19T12:11:01;8.40;;;6.47;;
31112;SDS011;17763;48.730;9.136;2023-01-19T12:13:29;11.43;;;6.95;;
31112;SDS011;17763;48.730;9.136;2023-01-19T12:18:42;8.00;;;5.90;;
31112;SDS011;17763;48.730;9.136;2023-01-19T12:21:12;9.15;;;6.82;;
31112;SDS011;17763;48.730;9.136;2023-01-19T12:28:51;12.40;;;7.07;;
31112;SDS011;17763;48.730;9.136;2023-01-19T12:31:19;8.45;;;6.18;;
31112;SDS011;17763;48.730;9.136;2023-01-19T12:33:46;7.53;;;5.18;;
31112;SDS011;17763;48.730;9.136;2023-01-19T12:43:48;8.07;;;6.18;;
31112;SDS011;17763;48.730;9.136;2023-01-19T12:46:49;7.55;;;5.75;;
31112;SDS011;17763;48.730;9.136;2023-01-19T12:52:08;7.50;;;5.63;;
31112;SDS011;17763;48.730;9.136;2023-01-19T12:54:35;7.03;;;5.63;;
31112;SDS011;17763;48.730;9.136;2023-01-19T12:57:13;8.48;;;5.82;;
31112;SDS011;17763;48.730;9.136;2023-01-19T12:59:44;8.38;;;6.15;;
31112;SDS011;17763;48.730;9.136;2023-01-19T13:13:32;6.38;;;5.03;;
31112;SDS011;17763;48.730;9.136;2023-01-19T13:24:10;7.07;;;5.18;;
31112;SDS011;17763;48.730;9.136;2023-01-19T13:26:41;5.40;;;4.90;;
31112;SDS011;17763;48.730;9.136;2023-01-19T13:31:50;5.95;;;5.35;;
31112;SDS011;17763;48.730;9.136;2023-01-19T13:34:20;6.90;;;5.20;;
31112;SDS011;17763;48.730;9.136;2023-01-19T13:36:52;6.20;;;5.47;;
31112;SDS011;17763;48.730;9.136;2023-01-19T13:42:28;7.72;;;5.43;;
31112;SDS011;17763;48.730;9.136;2023-01-19T13:44:54;6.93;;;5.60;;
31112;SDS011;17763;48.730;9.136;2023-01-19T13:47:37;6.22;;;5.40;;
31112;SDS011;17763;48.730;9.136;2023-01-19T13:50:41;8.02;;;5.38;;
31112;SDS011;17763;48.730;9.136;2023-01-19T13:53:13;6.85;;;5.40;;
31112;SDS011;17763;48.730;9.136;2023-01-19T13:55:49;5.60;;;4.93;;
31112;SDS011;17763;48.730;9.136;2023-01-19T13:59:00;5.80;;;5.10;;
31112;SDS011;17763;48.730;9.136;2023-01-19T14:01:42;6.88;;;5.50;;
31112;SDS011;17763;48.730;9.136;2023-01-19T14:04:26;6.32;;;5.40;;
31112;SDS011;17763;48.730;9.136;2023-01-19T14:07:01;6.28;;;5.38;;
31112;SDS011;17763;48.730;9.136;2023-01-19T14:09:32;6.97;;;5.32;;
31112;SDS011;17763;48.730;9.136;2023-01-19T14:12:10;7.07;;;5.63;;
31112;SDS011;17763;48.730;9.136;2023-01-19T14:14:38;6.43;;;4.72;;
31112;SDS011;17763;48.730;9.136;2023-01-19T14:17:15;5.47;;;5.03;;
31112;SDS011;17763;48.730;9.136;2023-01-19T14:22:13;6.63;;;5.07;;
31112;SDS011;17763;48.730;9.136;2023-01-19T14:24:41;8.77;;;5.68;;
31112;SDS011;17763;48.730;9.136;2023-01-19T14:27:08;8.00;;;5.00;;
31112;SDS011;17763;48.730;9.136;2023-01-19T14:29:42;7.20;;;5.65;;
31112;SDS011;17763;48.730;9.136;2023-01-19T14:44:58;5.60;;;5.00;;
31112;SDS011;17763;48.730;9.136;2023-01-19T14:47:33;5.37;;;4.53;;
31112;SDS011;17763;48.730;9.136;2023-01-19T14:50:07;6.20;;;5.00;;
31112;SDS011;17763;48.730;9.136;2023-01-19T14:52:53;8.13;;;4.78;;
31112;SDS011;17763;48.730;9.136;2023-01-19T14:55:27;7.57;;;5.50;;
31112;SDS011;17763;48.730;9.136;2023-01-19T14:57:56;7.10;;;5.90;;
31112;SDS011;17763;48.730;9.136;2023-01-19T15:00:24;5.40;;;4.70;;
31112;SDS011;17763;48.730;9.136;2023-01-19T15:02:51;8.98;;;5.60;;
31112;SDS011;17763;48.730;9.136;2023-01-19T15:05:16;8.98;;;6.82;;
31112;SDS011;17763;48.730;9.136;2023-01-19T15:07:43;5.82;;;5.22;;
31112;SDS011;17763;48.730;9.136;2023-01-19T15:10:14;7.45;;;6.22;;
31112;SDS011;17763;48.730;9.136;2023-01-19T15:12:46;10.85;;;7.07;;
31112;SDS011;17763;48.730;9.136;2023-01-19T15:15:16;6.70;;;6.10;;
31112;SDS011;17763;48.730;9.136;2023-01-19T15:17:54;8.88;;;6.75;;
31112;SDS011;17763;48.730;9.136;2023-01-19T15:20:23;7.10;;;5.38;;
31112;SDS011;17763;48.730;9.136;2023-01-19T15:22:51;5.40;;;4.90;;
31112;SDS011;17763;48.730;9.136;2023-01-19T15:25:18;5.25;;;4.60;;
31112;SDS011;17763;48.730;9.136;2023-01-19T15:27:50;5.13;;;4.63;;
31112;SDS011;17763;48.730;9.136;2023-01-19T15:32:46;8.05;;;4.75;;
31112;SDS011;17763;48.730;9.136;2023-01-19T15:35:13;4.85;;;4.40;;
31112;SDS011;17763;48.730;9.136;2023-01-19T15:37:41;5.40;;;4.90;;
31112;SDS011;17763;48.730;9.136;2023-01-19T15:40:07;5.90;;;5.38;;
31112;SDS011;17763;48.730;9.136;2023-01-19T15:42:34;6.18;;;4.85;;
31112;SDS011;17763;48.730;9.136;2023-01-19T15:44:59;5.47;;;4.80;;
31112;SDS011;17763;48.730;9.136;2023-01-19T15:47:25;5.55;;;4.20;;
31112;SDS011;17763;48.730;9.136;2023-01-19T15:49:51;8.00;;;4.90;;
31112;SDS011;17763;48.730;9.136;2023-01-19T15:52:19;6.07;;;4.95;;
31112;SDS011;17763;48.730;9.136;2023-01-19T15:54:45;5.72;;;4.82;;
31112;SDS011;17763;48.730;9.136;2023-01-19T15:57:13;6.32;;;4.68;;
31112;SDS011;17763;48.730;9.136;2023-01-19T15:59:39;7.30;;;4.30;;
31112;SDS011;17763;48.730;9.136;2023-01-19T16:02:05;6.00;;;4.38;;
31112;SDS011;17763;48.730;9.136;2023-01-19T16:04:31;7.28;;;4.38;;
31112;SDS011;17763;48.730;9.136;2023-01-19T16:06:56;5.53;;;4.50;;
31112;SDS011;17763;48.730;9.136;2023-01-19T16:09:22;6.35;;;4.57;;
31112;SDS011;17763;48.730;9.136;2023-01-19T16:11:48;6.55;;;4.90;;
31112;SDS011;17763;48.730;9.136;2023-01-19T16:14:14;4.55;;;4.15;;
31112;SDS011;17763;48.730;9.136;2023-01-19T16:16:40;7.18;;;5.35;;
31112;SDS011;17763;48.730;9.136;2023-01-19T16:19:12;5.68;;;5.10;;
31112;SDS011;17763;48.730;9.136;2023-01-19T16:21:38;5.03;;;4.18;;
31112;SDS011;17763;48.730;9.136;2023-01-19T16:24:04;5.97;;;5.40;;
31112;SDS011;17763;48.730;9.136;2023-01-19T16:26:31;6.45;;;4.97;;
31112;SDS011;17763;48.730;9.136;2023-01-19T16:29:02;5.57;;;5.07;;
31112;SDS011;17763;48.730;9.136;2023-01-19T16:31:34;7.88;;;5.43;;
31112;SDS011;17763;48.730;9.136;2023-01-19T16:34:00;7.40;;;6.00;;
31112;SDS011;17763;48.730;9.136;2023-01-19T16:36:28;6.53;;;5.20;;
31112;SDS011;17763;48.730;9.136;2023-01-19T16:39:03;7.70;;;4.90;;
31112;SDS011;17763;48.730;9.136;2023-01-19T16:41:34;7.95;;;6.20;;